createdAt,value
2019-05-28T00:00:31.000Z,16.00
2019-05-28T00:02:59.404Z,16.00
2019-05-28T00:05:27.871Z,16.00
2019-05-28T00:07:56.265Z,16.00
2019-05-28T00:10:24.669Z,15.90
2019-05-28T00:12:53.056Z,15.90
2019-05-28T00:15:22.140Z,15.90
2019-05-28T00:17:50.523Z,15.90
2019-05-28T00:20:19.271Z,15.80
2019-05-28T00:22:47.940Z,15.80
2019-05-28T00:25:16.679Z,15.80
2019-05-28T00:27:45.095Z,15.80
2019-05-28T00:30:20.577Z,15.80
2019-05-28T00:32:45.453Z,15.70
2019-05-28T00:35:16.031Z,15.70
2019-05-28T00:37:43.648Z,15.70
2019-05-28T00:40:12.219Z,15.70
2019-05-28T00:42:40.636Z,15.70
2019-05-28T00:45:09.957Z,15.70
2019-05-28T00:47:38.335Z,15.70
2019-05-28T00:50:08.780Z,15.70
2019-05-28T00:52:37.425Z,15.70
2019-05-28T00:55:07.664Z,15.70
2019-05-28T00:57:36.339Z,15.70
2019-05-28T01:00:07.050Z,15.60
2019-05-28T01:02:37.102Z,15.60
2019-05-28T01:07:38.879Z,15.60
2019-05-28T01:13:35.470Z,15.50
2019-05-28T01:25:42.166Z,15.50
2019-05-28T01:28:10.566Z,15.50
2019-05-28T01:30:53.956Z,15.50
2019-05-28T01:37:20.899Z,15.40
2019-05-28T01:39:49.311Z,15.40
2019-05-28T01:42:17.708Z,15.50
2019-05-28T01:45:31.450Z,15.60
2019-05-28T01:47:59.823Z,15.50
2019-05-28T01:50:29.772Z,15.50
2019-05-28T01:52:58.160Z,15.50
2019-05-28T01:55:35.109Z,15.50
2019-05-28T01:58:58.272Z,15.50
2019-05-28T02:01:26.680Z,15.50
2019-05-28T02:04:05.886Z,15.40
2019-05-28T02:06:34.288Z,15.50
2019-05-28T02:09:02.850Z,15.50
2019-05-28T02:11:31.256Z,15.40
2019-05-28T02:14:00.927Z,15.50
2019-05-28T02:16:29.336Z,15.50
2019-05-28T02:18:57.755Z,15.40
2019-05-28T02:21:26.171Z,15.30
2019-05-28T02:23:54.555Z,15.30
2019-05-28T02:26:22.976Z,15.30
2019-05-28T02:28:51.400Z,15.30
2019-05-28T02:31:27.761Z,15.30
2019-05-28T02:33:49.904Z,15.40
2019-05-28T02:36:19.848Z,15.30
2019-05-28T02:38:48.240Z,15.30
2019-05-28T02:41:17.108Z,15.40
2019-05-28T02:43:45.529Z,15.40
2019-05-28T02:46:13.942Z,15.30
2019-05-28T02:48:42.343Z,15.40
2019-05-28T02:51:11.840Z,15.40
2019-05-28T02:53:40.624Z,15.40
2019-05-28T02:56:09.749Z,15.40
2019-05-28T02:58:38.159Z,15.40
2019-05-28T03:01:07.400Z,15.30
2019-05-28T03:03:36.062Z,15.20
2019-05-28T03:06:06.475Z,15.20
2019-05-28T03:08:34.949Z,15.10
2019-05-28T03:11:04.418Z,15.10
2019-05-28T03:13:33.279Z,15.10
2019-05-28T03:16:03.804Z,15.10
2019-05-28T03:18:35.810Z,15.00
2019-05-28T03:21:05.857Z,15.10
2019-05-28T03:23:37.221Z,15.10
2019-05-28T03:26:06.172Z,15.10
2019-05-28T03:28:34.713Z,15.00
2019-05-28T03:31:03.105Z,15.10
2019-05-28T03:33:31.585Z,15.10
2019-05-28T03:36:01.690Z,15.00
2019-05-28T03:38:32.347Z,15.00
2019-05-28T03:41:00.736Z,15.00
2019-05-28T03:43:29.148Z,15.00
2019-05-28T03:45:57.556Z,15.00
2019-05-28T03:48:25.952Z,15.00
2019-05-28T03:50:54.364Z,15.00
2019-05-28T03:53:22.773Z,15.00
2019-05-28T03:55:51.225Z,14.90
2019-05-28T03:58:21.762Z,14.90
2019-05-28T04:00:49.379Z,14.90
2019-05-28T04:03:17.772Z,14.90
2019-05-28T04:05:49.481Z,14.80
2019-05-28T04:08:17.898Z,14.80
2019-05-28T04:10:54.358Z,14.80
2019-05-28T04:13:24.285Z,14.80
2019-05-28T04:15:56.040Z,14.80
2019-05-28T04:24:57.853Z,14.80
2019-05-28T04:27:26.244Z,14.80
2019-05-28T04:29:54.664Z,14.80
2019-05-28T04:39:02.259Z,14.80
2019-05-28T04:45:24.028Z,14.80
2019-05-28T04:47:53.538Z,14.70
2019-05-28T04:50:23.312Z,14.60
2019-05-28T04:56:32.473Z,14.50
2019-05-28T04:59:03.795Z,14.50
2019-05-28T05:01:31.015Z,14.50
2019-05-28T05:03:59.428Z,14.50
2019-05-28T05:06:29.913Z,14.50
2019-05-28T05:08:59.542Z,14.50
2019-05-28T05:11:30.256Z,14.50
2019-05-28T05:13:59.649Z,14.60
2019-05-28T05:16:28.088Z,14.70
2019-05-28T05:18:56.570Z,14.70
2019-05-28T05:21:24.957Z,14.70
2019-05-28T05:23:53.735Z,14.70
2019-05-28T05:33:20.767Z,14.80
2019-05-28T05:36:10.600Z,14.90
2019-05-28T05:38:40.365Z,14.90
2019-05-28T05:44:37.942Z,15.00
2019-05-28T05:47:06.389Z,15.10
2019-05-28T05:53:03.959Z,15.10
2019-05-28T05:55:32.811Z,15.20
2019-05-28T05:58:01.277Z,15.20
2019-05-28T06:00:29.720Z,15.30
2019-05-28T06:02:58.122Z,15.40
2019-05-28T06:05:28.204Z,15.40
2019-05-28T06:07:56.612Z,15.40
2019-05-28T06:10:25.016Z,15.50
2019-05-28T06:12:53.412Z,15.50
2019-05-28T06:15:21.804Z,15.50
2019-05-28T06:17:51.667Z,15.60
2019-05-28T06:20:20.228Z,15.60
2019-05-28T06:22:48.636Z,15.70
2019-05-28T06:25:17.363Z,15.70
2019-05-28T06:27:45.773Z,15.70
2019-05-28T06:30:14.231Z,15.80
2019-05-28T06:32:42.729Z,15.80
2019-05-28T06:35:11.825Z,15.80
2019-05-28T06:37:40.212Z,15.90
2019-05-28T06:40:09.408Z,15.90
2019-05-28T06:42:39.565Z,16.00
2019-05-28T06:45:09.696Z,16.00
2019-05-28T06:47:38.109Z,16.00
2019-05-28T06:50:12.299Z,16.00
2019-05-28T06:52:41.198Z,16.00
2019-05-28T06:55:09.761Z,16.00
2019-05-28T06:57:38.171Z,16.10
2019-05-28T07:00:08.764Z,16.10
2019-05-28T07:02:36.393Z,16.20
2019-05-28T07:05:05.829Z,16.20
2019-05-28T07:07:34.232Z,16.20
2019-05-28T07:10:06.741Z,16.20
2019-05-28T07:12:35.373Z,16.20
2019-05-28T07:15:04.962Z,16.30
2019-05-28T07:17:33.453Z,16.30
2019-05-28T07:20:01.921Z,16.40
2019-05-28T07:22:30.361Z,16.50
2019-05-28T07:24:58.771Z,16.60
2019-05-28T07:27:27.186Z,16.60
2019-05-28T07:29:55.564Z,16.60
2019-05-28T07:35:04.936Z,16.70
2019-05-28T07:37:33.353Z,16.80
2019-05-28T07:40:01.754Z,16.90
2019-05-28T07:42:32.999Z,16.90
2019-05-28T07:45:00.273Z,17.00
2019-05-28T07:47:28.666Z,17.00
2019-05-28T07:49:57.048Z,17.10
2019-05-28T07:52:25.440Z,17.10
2019-05-28T07:54:53.839Z,17.20
2019-05-28T07:57:22.234Z,17.20
2019-05-28T07:59:50.642Z,17.30
2019-05-28T08:02:19.104Z,17.30
2019-05-28T08:04:48.022Z,17.40
2019-05-28T08:07:16.509Z,17.60
2019-05-28T08:09:44.905Z,17.70
2019-05-28T08:12:13.442Z,17.70
2019-05-28T08:14:42.060Z,17.80
2019-05-28T08:17:10.734Z,17.90
2019-05-28T08:19:39.141Z,18.00
2019-05-28T08:22:07.596Z,18.10
2019-05-28T08:24:35.997Z,18.10
2019-05-28T08:27:04.380Z,18.20
2019-05-28T08:29:32.796Z,18.40
2019-05-28T08:32:01.291Z,18.40
2019-05-28T08:34:29.709Z,18.40
2019-05-28T08:37:05.701Z,18.50
2019-05-28T08:39:28.252Z,18.70
2019-05-28T08:41:56.703Z,18.90
2019-05-28T08:44:25.096Z,19.10
2019-05-28T08:46:53.494Z,19.10
2019-05-28T08:49:23.898Z,19.10
2019-05-28T08:51:52.075Z,19.10
2019-05-28T08:54:20.484Z,19.10
2019-05-28T09:00:35.994Z,19.20
2019-05-28T09:03:05.393Z,19.20
2019-05-28T09:05:33.935Z,19.40
2019-05-28T09:08:02.368Z,19.30
2019-05-28T09:10:31.273Z,19.40
2019-05-28T09:12:59.759Z,19.50
2019-05-28T09:15:28.292Z,19.40
2019-05-28T09:17:56.680Z,19.50
2019-05-28T09:20:25.173Z,19.60
2019-05-28T09:22:53.638Z,19.70
2019-05-28T09:25:23.636Z,19.60
2019-05-28T09:27:52.028Z,19.70
2019-05-28T09:30:21.231Z,19.90
2019-05-28T09:32:56.840Z,20.10
2019-05-28T09:35:43.979Z,20.30
2019-05-28T09:38:02.400Z,20.30
2019-05-28T09:40:48.305Z,20.40
2019-05-28T09:43:01.144Z,20.40
2019-05-28T09:45:29.613Z,20.40
2019-05-28T09:47:58.314Z,20.40
2019-05-28T09:50:30.923Z,20.70
2019-05-28T09:52:57.117Z,20.90
2019-05-28T09:55:25.544Z,20.80
2019-05-28T09:57:59.859Z,21.10
2019-05-28T10:00:28.778Z,21.10
2019-05-28T10:02:57.179Z,21.20
2019-05-28T10:05:25.600Z,21.20
2019-05-28T10:08:06.076Z,21.50
2019-05-28T10:23:47.237Z,21.90
2019-05-28T10:26:15.633Z,21.70
2019-05-28T10:28:44.092Z,21.80
2019-05-28T10:31:12.484Z,21.80
2019-05-28T10:33:40.872Z,22.30
2019-05-28T10:36:09.277Z,22.60
2019-05-28T10:38:37.889Z,22.80
2019-05-28T10:41:06.358Z,22.90
2019-05-28T10:43:34.744Z,23.10
2019-05-28T10:53:50.160Z,24.20
2019-05-28T10:56:18.561Z,24.30
2019-05-28T10:58:48.956Z,23.60
2019-05-28T11:01:17.209Z,22.60
2019-05-28T11:03:47.513Z,23.20
2019-05-28T11:06:15.995Z,23.70
2019-05-28T11:08:44.385Z,23.90
2019-05-28T11:11:12.796Z,23.90
2019-05-28T11:13:52.718Z,23.50
2019-05-28T11:16:11.389Z,23.90
2019-05-28T11:18:40.144Z,24.40
2019-05-28T11:21:10.020Z,24.50
2019-05-28T11:23:38.718Z,24.60
2019-05-28T11:26:07.099Z,24.60
2019-05-28T11:28:35.513Z,24.70
2019-05-28T11:31:03.903Z,24.90
2019-05-28T11:33:32.299Z,25.10
2019-05-28T11:36:00.676Z,25.00
2019-05-28T11:38:29.068Z,25.00
2019-05-28T11:40:57.532Z,24.90
2019-05-28T11:43:25.944Z,25.00
2019-05-28T11:45:54.345Z,25.20
2019-05-28T11:48:23.058Z,25.40
2019-05-28T11:50:51.449Z,25.30
2019-05-28T11:53:19.852Z,25.30
2019-05-28T11:55:48.234Z,25.50
2019-05-28T11:58:16.632Z,25.60
2019-05-28T12:00:45.025Z,25.90
2019-05-28T12:03:13.423Z,25.00
2019-05-28T12:05:41.816Z,25.30
2019-05-28T12:08:10.221Z,25.50
2019-05-28T12:10:38.616Z,25.50
2019-05-28T12:13:10.642Z,25.80
2019-05-28T12:15:37.152Z,26.10
2019-05-28T12:18:05.562Z,26.20
2019-05-28T12:20:34.183Z,26.10
2019-05-28T12:23:10.927Z,26.30
2019-05-28T12:25:32.718Z,26.40
2019-05-28T12:28:01.154Z,26.40
2019-05-28T12:30:29.875Z,26.70
2019-05-28T12:32:58.283Z,26.80
2019-05-28T12:35:29.639Z,26.80
2019-05-28T12:37:56.881Z,27.10
2019-05-28T12:40:25.337Z,27.30
2019-05-28T12:42:53.725Z,27.70
2019-05-28T12:45:35.004Z,27.30
2019-05-28T12:48:12.242Z,27.60
2019-05-28T12:50:22.954Z,27.60
2019-05-28T12:56:20.258Z,27.70
2019-05-28T12:58:48.733Z,27.70
2019-05-28T13:01:17.131Z,27.90
2019-05-28T13:03:45.595Z,27.90
2019-05-28T13:06:13.999Z,27.80
2019-05-28T13:08:42.693Z,28.00
2019-05-28T13:11:11.080Z,27.80
2019-05-28T13:13:39.465Z,27.90
2019-05-28T13:16:07.865Z,27.80
2019-05-28T13:18:36.320Z,27.40
2019-05-28T13:21:04.763Z,27.60
2019-05-28T13:23:33.188Z,27.40
2019-05-28T13:26:01.631Z,27.30
2019-05-28T13:28:31.620Z,27.50
2019-05-28T13:31:00.022Z,27.80
2019-05-28T13:33:28.588Z,28.00
2019-05-28T13:35:57.024Z,28.00
2019-05-28T13:38:27.505Z,28.00
2019-05-28T13:40:55.534Z,28.30
2019-05-28T13:43:23.919Z,28.40
2019-05-28T13:45:52.323Z,27.60
2019-05-28T13:48:20.721Z,27.40
2019-05-28T13:50:49.119Z,27.20
2019-05-28T13:53:19.989Z,27.70
2019-05-28T13:55:48.676Z,27.60
2019-05-28T13:58:17.052Z,27.70
2019-05-28T14:00:45.464Z,27.80
2019-05-28T14:03:13.950Z,27.80
2019-05-28T14:05:42.441Z,27.70
2019-05-28T14:08:10.843Z,28.20
2019-05-28T14:10:39.236Z,28.00
2019-05-28T14:13:07.639Z,28.00
2019-05-28T14:15:36.039Z,28.10
2019-05-28T14:18:04.656Z,28.40
2019-05-28T14:20:33.264Z,28.10
2019-05-28T14:23:01.726Z,27.70
2019-05-28T14:25:30.189Z,27.70
2019-05-28T14:27:58.585Z,27.10
2019-05-28T14:30:28.023Z,26.90
2019-05-28T14:32:56.651Z,26.90
2019-05-28T14:35:25.072Z,27.20
2019-05-28T14:37:53.455Z,27.20
2019-05-28T14:40:24.488Z,27.30
2019-05-28T14:42:51.429Z,27.20
2019-05-28T14:45:20.067Z,27.20
2019-05-28T14:47:48.470Z,27.00
2019-05-28T14:50:18.095Z,26.80
2019-05-28T14:52:46.488Z,26.80
2019-05-28T14:55:15.022Z,26.40
2019-05-28T14:57:43.432Z,26.20
2019-05-28T15:00:13.793Z,26.10
2019-05-28T15:02:41.456Z,26.40
2019-05-28T15:05:10.689Z,26.40
2019-05-28T15:07:39.473Z,26.80
2019-05-28T15:10:09.276Z,26.70
2019-05-28T15:12:37.675Z,26.20
2019-05-28T15:15:14.177Z,25.70
2019-05-28T15:17:42.562Z,25.80
2019-05-28T15:20:12.286Z,26.20
2019-05-28T15:22:40.699Z,26.30
2019-05-28T15:25:09.506Z,26.20
2019-05-28T15:27:38.266Z,26.10
2019-05-28T15:30:14.120Z,26.30
2019-05-28T15:32:42.578Z,26.10
2019-05-28T15:35:15.752Z,25.70
2019-05-28T15:37:44.157Z,25.80
2019-05-28T15:40:12.987Z,26.00
2019-05-28T15:42:41.396Z,26.20
2019-05-28T15:45:10.919Z,25.80
2019-05-28T15:47:39.716Z,26.10
2019-05-28T15:50:10.105Z,25.90
2019-05-28T15:52:37.738Z,26.20
2019-05-28T15:55:07.412Z,26.00
2019-05-28T15:57:35.783Z,26.00
2019-05-28T16:00:06.417Z,25.90
2019-05-28T16:02:41.125Z,25.70
2019-05-28T16:05:09.595Z,26.10
2019-05-28T16:07:38.003Z,26.20
2019-05-28T16:10:08.256Z,26.10
2019-05-28T16:12:38.048Z,25.80
2019-05-28T16:15:10.415Z,25.70
2019-05-28T16:17:38.828Z,25.50
2019-05-28T16:20:13.797Z,25.40
2019-05-28T16:22:43.731Z,25.50
2019-05-28T16:25:13.086Z,25.40
2019-05-28T16:27:42.850Z,25.50
2019-05-28T16:30:13.479Z,25.40
2019-05-28T16:32:41.947Z,25.00
2019-05-28T16:35:10.774Z,24.90
2019-05-28T16:37:39.157Z,24.50
2019-05-28T16:40:15.545Z,24.60
2019-05-28T16:42:39.316Z,24.50
2019-05-28T16:45:09.316Z,24.10
2019-05-28T16:47:37.755Z,24.20
2019-05-28T16:50:07.871Z,24.60
2019-05-28T16:52:36.595Z,24.40
2019-05-28T16:55:08.308Z,24.40
2019-05-28T16:57:36.704Z,24.00
2019-05-28T17:00:07.434Z,24.40
2019-05-28T17:02:36.050Z,24.20
2019-05-28T17:05:06.841Z,23.90
2019-05-28T17:07:35.232Z,23.70
2019-05-28T17:10:05.389Z,23.20
2019-05-28T17:12:33.901Z,23.00
2019-05-28T17:15:03.111Z,23.00
2019-05-28T17:17:31.516Z,22.90
2019-05-28T17:19:59.899Z,22.80
2019-05-28T17:22:28.275Z,22.70
2019-05-28T17:24:56.670Z,23.10
2019-05-28T17:27:25.054Z,22.90
2019-05-28T17:29:53.494Z,22.90
2019-05-28T17:32:21.875Z,22.70
2019-05-28T17:34:50.262Z,22.60
2019-05-28T17:37:18.658Z,22.00
2019-05-28T17:39:47.048Z,22.20
2019-05-28T17:42:15.460Z,22.30
2019-05-28T17:44:47.150Z,22.00
2019-05-28T17:47:14.231Z,21.80
2019-05-28T17:49:42.639Z,21.80
2019-05-28T17:52:11.044Z,21.80
2019-05-28T17:54:39.445Z,21.90
2019-05-28T17:57:07.827Z,21.80
2019-05-28T17:59:36.223Z,21.70
2019-05-28T18:02:05.086Z,21.60
2019-05-28T18:04:33.481Z,21.50
2019-05-28T18:07:01.955Z,21.30
2019-05-28T18:09:30.348Z,21.40
2019-05-28T18:11:58.999Z,21.50
2019-05-28T18:14:27.402Z,21.50
2019-05-28T18:16:56.239Z,21.50
2019-05-28T18:19:24.648Z,21.20
2019-05-28T18:21:53.045Z,20.90
2019-05-28T18:24:21.428Z,20.70
2019-05-28T18:26:49.825Z,20.50
2019-05-28T18:29:18.200Z,20.40
2019-05-28T18:31:46.598Z,20.20
2019-05-28T18:34:14.990Z,20.00
2019-05-28T18:36:43.383Z,20.00
2019-05-28T18:39:13.483Z,19.80
2019-05-28T18:41:42.231Z,19.80
2019-05-28T18:44:10.620Z,19.60
2019-05-28T18:46:39.001Z,19.50
2019-05-28T18:49:07.463Z,19.40
2019-05-28T18:51:38.809Z,19.50
2019-05-28T18:54:05.952Z,19.30
2019-05-28T18:56:34.917Z,19.40
2019-05-28T18:59:03.696Z,19.30
2019-05-28T19:01:32.359Z,19.10
2019-05-28T19:04:01.008Z,19.20
2019-05-28T19:06:29.402Z,19.10
2019-05-28T19:08:57.782Z,18.90
2019-05-28T19:11:37.379Z,18.80
2019-05-28T19:13:56.465Z,18.60
2019-05-28T19:16:24.856Z,18.60
2019-05-28T19:18:55.320Z,18.70
2019-05-28T19:21:23.407Z,18.50
2019-05-28T19:23:51.795Z,18.40
2019-05-28T19:27:13.011Z,18.20
2019-05-28T19:29:43.407Z,18.20
2019-05-28T19:32:11.824Z,17.90
2019-05-28T19:34:41.278Z,17.90
2019-05-28T19:37:10.610Z,17.80
2019-05-28T19:39:39.729Z,17.60
2019-05-28T19:42:10.010Z,17.50
2019-05-28T19:44:38.619Z,17.50
2019-05-28T19:47:09.072Z,17.40
2019-05-28T19:49:41.995Z,17.20
2019-05-28T19:52:12.330Z,17.20
2019-05-28T19:54:43.828Z,17.30
2019-05-28T19:57:14.579Z,17.10
2019-05-28T19:59:44.148Z,17.00
2019-05-28T20:02:15.909Z,17.00
2019-05-28T20:04:44.307Z,17.00
2019-05-28T20:07:12.734Z,17.00
2019-05-28T20:09:41.104Z,16.90
2019-05-28T20:12:12.811Z,16.80
2019-05-28T20:14:39.631Z,16.70
2019-05-28T20:17:08.019Z,16.70
2019-05-28T20:19:36.403Z,16.50
2019-05-28T20:22:04.934Z,16.30
2019-05-28T20:24:34.319Z,16.30
2019-05-28T20:27:02.809Z,16.30
2019-05-28T20:29:31.208Z,16.20
2019-05-28T20:31:59.622Z,16.10
2019-05-28T20:34:28.013Z,16.10
2019-05-28T20:36:56.406Z,16.00
2019-05-28T20:39:24.787Z,16.00
2019-05-28T20:41:53.192Z,16.00
2019-05-28T20:44:21.593Z,15.90
2019-05-28T20:46:49.968Z,15.80
2019-05-28T20:49:18.367Z,15.80
2019-05-28T20:51:46.755Z,15.80
2019-05-28T20:54:15.172Z,15.70
2019-05-28T20:56:43.557Z,15.70
2019-05-28T20:59:11.957Z,15.60
2019-05-28T21:01:40.345Z,15.60
2019-05-28T21:04:08.742Z,15.60
2019-05-28T21:06:37.129Z,15.70
2019-05-28T21:09:06.767Z,15.60
2019-05-28T21:11:35.288Z,15.50
2019-05-28T21:14:03.763Z,15.50
2019-05-28T21:16:32.164Z,15.50
2019-05-28T21:19:00.638Z,15.50
2019-05-28T21:21:29.044Z,15.40
2019-05-28T21:23:57.866Z,15.40
2019-05-28T21:26:26.312Z,15.40
2019-05-28T21:28:54.748Z,15.40
2019-05-28T21:31:23.128Z,15.40
2019-05-28T21:33:52.771Z,15.30
2019-05-28T21:36:21.396Z,15.30
2019-05-28T21:38:51.100Z,15.20
2019-05-28T21:41:19.625Z,15.20
2019-05-28T21:43:48.028Z,15.10
2019-05-28T21:46:16.452Z,15.10
2019-05-28T21:48:44.827Z,15.10
2019-05-28T21:51:13.230Z,15.00
2019-05-28T21:53:41.625Z,14.90
2019-05-28T21:56:10.009Z,14.90
2019-05-28T21:58:38.396Z,14.90
2019-05-28T22:01:18.753Z,14.80
2019-05-28T22:03:47.150Z,14.80
2019-05-28T22:06:15.619Z,14.80
2019-05-28T22:08:44.211Z,14.80
2019-05-28T22:11:12.620Z,14.80
2019-05-28T22:13:41.018Z,14.70
2019-05-28T22:16:09.400Z,14.70
2019-05-28T22:18:37.796Z,14.60
2019-05-28T22:21:06.186Z,14.70
2019-05-28T22:23:34.555Z,14.60
2019-05-28T22:26:02.965Z,14.50
2019-05-28T22:28:31.348Z,14.50
2019-05-28T22:30:59.763Z,14.40
2019-05-28T22:33:28.193Z,14.30
2019-05-28T22:35:57.039Z,14.30
2019-05-28T22:38:25.521Z,14.20
2019-05-28T22:40:53.923Z,14.20
2019-05-28T22:43:31.110Z,14.10
2019-05-28T22:45:52.716Z,14.00
2019-05-28T22:48:21.136Z,14.00
2019-05-28T22:50:49.548Z,14.00
2019-05-28T22:53:17.933Z,14.00
2019-05-28T22:55:46.314Z,13.90
2019-05-28T22:58:14.687Z,13.80
2019-05-28T23:00:43.104Z,13.80
2019-05-28T23:03:11.491Z,13.70
2019-05-28T23:05:39.864Z,13.70
2019-05-28T23:08:08.247Z,13.60
2019-05-28T23:10:36.643Z,13.60
2019-05-28T23:13:05.049Z,13.60
2019-05-28T23:15:33.440Z,13.60
2019-05-28T23:18:02.418Z,13.50
2019-05-28T23:20:31.042Z,13.50
2019-05-28T23:23:00.873Z,13.40
2019-05-28T23:25:29.446Z,13.40
2019-05-28T23:27:57.827Z,13.40
2019-05-28T23:30:26.296Z,13.40
2019-05-28T23:32:55.064Z,13.30
2019-05-28T23:35:23.459Z,13.30
2019-05-28T23:37:52.212Z,13.30
2019-05-28T23:40:20.865Z,13.30
2019-05-28T23:42:49.267Z,13.30
2019-05-28T23:45:18.509Z,13.20
2019-05-28T23:47:46.913Z,13.20
2019-05-28T23:50:18.099Z,13.20
2019-05-28T23:52:45.964Z,13.10
2019-05-28T23:55:14.494Z,13.10
2019-05-28T23:57:42.899Z,13.00
